Jamie Marie — WDE7178 — position and weather

sailwx.info

Track history (hours):
 
Tides and Currents Weather Stations Pressure Air Temp Water Temp Dewpoint Dewpoint Depression Visibility Wind Speed Wind Dir Waves Ship Positions

Jamie Marie

Owner: Jamie Marie, Inc., Aberdeen, WA. More information available from US FCC via Universal Licensing System and Coast Guard Vessel Documentation Center.

Last reported at 2014-Oct-09 23:29 UTC. Time now 2014-Oct-23 03:54 UTC.
Position N 46°10' W 124°39'.
Warning: this ship's position is 13 days out of date.

Length 30 m.

Type: Fishing. MMSI: 366425240.

Date/timePositionNaut miles runAvg speedWind from/ knotsBaromVisibWave heightAir tempDewpointWater temp
2014-Oct-09 23:29N 46°10' W 124°39'8 9.0
2014-Oct-09 22:33N 46°18' W 124°41'9 9.1
2014-Oct-09 21:33N 46°27' W 124°45'9 8.7
2014-Oct-09 20:33N 46°35' W 124°49'9 8.6
2014-Oct-09 19:33N 46°44' W 124°52'9 8.5
2014-Oct-09 18:33N 46°52' W 124°55'9 8.6
2014-Oct-09 17:31N 47°01' W 124°57'8 8.5
2014-Oct-09 16:33N 47°09' W 124°57'8 8.2
2014-Oct-09 15:34N 47°17' W 124°53'3 3.4
2014-Oct-09 14:33N 47°15' W 124°48'8 8.4
2014-Oct-09 13:33N 47°10' W 124°39'8 8.3
2014-Oct-09 12:32N 47°04' W 124°29'8 8.4
2014-Oct-09 11:33N 46°59' W 124°19'10 3.3
2014-Oct-09 08:29N 46°54' W 124°06'0 0.0
2014-Oct-09 07:22N 46°54' W 124°06'0 0.0
2014-Oct-09 05:30N 46°54' W 124°06'0 0.0
2014-Oct-09 01:28N 46°54' W 124°06'0 0.0
2014-Oct-09 00:32N 46°54' W 124°06'0 0.0
2014-Oct-08 23:33N 46°54' W 124°06'0 0.0
2014-Oct-08 20:24N 46°54' W 124°06'0 0.0
2014-Oct-08 19:26N 46°54' W 124°06'0 0.0
2014-Oct-08 18:32N 46°54' W 124°06'0 0.0
2014-Oct-08 12:15N 46°54' W 124°06'0 0.0
2014-Oct-08 11:18N 46°54' W 124°06'0 0.0
2014-Oct-08 08:33N 46°54' W 124°06'0 0.0
2014-Oct-08 07:32N 46°54' W 124°06'0 0.0
2014-Oct-08 06:33N 46°54' W 124°06'0 0.0
2014-Oct-08 05:08N 46°54' W 124°06'0 0.0
2014-Oct-08 04:18N 46°54' W 124°06'1 0.9
2014-Oct-08 03:28N 46°55' W 124°07'8 8.3
2014-Oct-08 02:33N 46°58' W 124°17'8 8.2
2014-Oct-08 01:33N 47°02' W 124°27'8 8.0
2014-Oct-08 00:34N 47°07' W 124°37'8 7.9
2014-Oct-07 23:33N 47°12' W 124°46'7 7.1
2014-Oct-07 22:33N 47°16' W 124°54'2 2.1
2014-Oct-07 21:33N 47°18' W 124°52'2 2.2
2014-Oct-07 20:33N 47°16' W 124°52'3 2.7
2014-Oct-07 19:33N 47°13' W 124°55'3 2.7
2014-Oct-07 18:33N 47°11' W 124°57'3 3.0
2014-Oct-07 17:30N 47°09' W 124°59'1 0.8
2014-Oct-07 16:33N 47°09' W 124°58'3 3.2
2014-Oct-07 15:33N 47°12' W 124°56'5 3.6
2014-Oct-07 14:07N 47°07' W 125°00'1 1.0
2014-Oct-07 13:33N 47°08' W 125°00'1 1.0
2014-Oct-07 12:33N 47°09' W 124°60'1 1.1
2014-Oct-07 11:33N 47°10' W 124°60'1 1.0
2014-Oct-07 10:33N 47°11' W 124°59'1 0.9
2014-Oct-07 09:33N 47°12' W 124°59'1 1.0
2014-Oct-07 08:33N 47°13' W 124°58'3 1.1
2014-Oct-07 05:33N 47°16' W 124°56'1 1.0
2014-Oct-07 04:34N 47°17' W 124°56'4 0.3
2014-Oct-06 14:21N 47°13' W 124°54'0 0.4
2014-Oct-06 13:25N 47°13' W 124°54'2 2.5
2014-Oct-06 12:33N 47°12' W 124°51'8 8.4
2014-Oct-06 11:33N 47°08' W 124°40'8 8.4
2014-Oct-06 10:33N 47°03' W 124°30'8 8.4
2014-Oct-06 09:33N 46°59' W 124°20'10 4.1
2014-Oct-06 07:06N 46°54' W 124°06'0 0.0
2014-Oct-06 04:19N 46°54' W 124°06'0 0.0
2014-Oct-05 20:03N 46°54' W 124°06'0 0.0
2014-Oct-05 19:26N 46°54' W 124°06'0 0.0
2014-Oct-05 18:33N 46°54' W 124°06'0 0.0
2014-Oct-05 17:31N 46°54' W 124°06'0 0.0
2014-Oct-05 16:33N 46°54' W 124°06'0 0.0
2014-Oct-05 15:33N 46°54' W 124°06'0 0.0
2014-Oct-05 14:33N 46°54' W 124°06'0 0.0
2014-Oct-05 13:16N 46°54' W 124°06'0 0.0
2014-Oct-05 09:20N 46°54' W 124°06'0 0.0
2014-Oct-05 08:33N 46°54' W 124°06'0 0.0
2014-Oct-05 07:32N 46°54' W 124°06'0 0.0
2014-Oct-05 06:32N 46°54' W 124°06'0 0.0
2014-Oct-05 05:24N 46°54' W 124°06'0 0.0
2014-Oct-05 04:32N 46°54' W 124°06'0 0.0
2014-Oct-05 03:32N 46°54' W 124°06'0 0.0
2014-Oct-05 02:33N 46°54' W 124°06'0 0.0
2014-Oct-05 01:20N 46°54' W 124°06'0 0.0
2014-Oct-04 23:23N 46°54' W 124°06'0 0.0
2014-Oct-04 22:27N 46°54' W 124°06'0 0.0
2014-Oct-04 21:19N 46°54' W 124°06'0 0.0
2014-Oct-04 20:31N 46°54' W 124°06'0 0.0
2014-Oct-04 19:33N 46°54' W 124°06'0 0.0
2014-Oct-04 18:32N 46°54' W 124°06'0 0.0
2014-Oct-04 17:24N 46°54' W 124°06'0 0.0
2014-Oct-04 16:33N 46°54' W 124°06'4 0.4
2014-Oct-04 07:06N 46°55' W 124°12'5 7.4
2014-Oct-04 06:29N 46°57' W 124°17'  
Track history (hours):
 
Tides and Currents Weather Stations Pressure Air Temp Water Temp Dewpoint Dewpoint Depression Visibility Wind Speed Wind Dir Waves Ship Positions

Jamie Marie

Owner: Jamie Marie, Inc., Aberdeen, WA. More information available from US FCC via Universal Licensing System and Coast Guard Vessel Documentation Center.

Last reported at 2014-Oct-09 23:29 UTC. Time now 2014-Oct-23 03:54 UTC.
Position N 46°10' W 124°39'.
Warning: this ship's position is 13 days out of date.

Length 30 m.

Type: Fishing. MMSI: 366425240.

Date/timePositionNaut miles runAvg speedWind from/ knotsBaromVisibWave heightAir tempDewpointWater temp
2014-Oct-09 23:29N 46°10' W 124°39'8 9.0
2014-Oct-09 22:33N 46°18' W 124°41'9 9.1
2014-Oct-09 21:33N 46°27' W 124°45'9 8.7
2014-Oct-09 20:33N 46°35' W 124°49'9 8.6
2014-Oct-09 19:33N 46°44' W 124°52'9 8.5
2014-Oct-09 18:33N 46°52' W 124°55'9 8.6
2014-Oct-09 17:31N 47°01' W 124°57'8 8.5
2014-Oct-09 16:33N 47°09' W 124°57'8 8.2
2014-Oct-09 15:34N 47°17' W 124°53'3 3.4
2014-Oct-09 14:33N 47°15' W 124°48'8 8.4
2014-Oct-09 13:33N 47°10' W 124°39'8 8.3
2014-Oct-09 12:32N 47°04' W 124°29'8 8.4
2014-Oct-09 11:33N 46°59' W 124°19'10 3.3
2014-Oct-09 08:29N 46°54' W 124°06'0 0.0
2014-Oct-09 07:22N 46°54' W 124°06'0 0.0
2014-Oct-09 05:30N 46°54' W 124°06'0 0.0
2014-Oct-09 01:28N 46°54' W 124°06'0 0.0
2014-Oct-09 00:32N 46°54' W 124°06'0 0.0
2014-Oct-08 23:33N 46°54' W 124°06'0 0.0
2014-Oct-08 20:24N 46°54' W 124°06'0 0.0
2014-Oct-08 19:26N 46°54' W 124°06'0 0.0
2014-Oct-08 18:32N 46°54' W 124°06'0 0.0
2014-Oct-08 12:15N 46°54' W 124°06'0 0.0
2014-Oct-08 11:18N 46°54' W 124°06'0 0.0
2014-Oct-08 08:33N 46°54' W 124°06'0 0.0
2014-Oct-08 07:32N 46°54' W 124°06'0 0.0
2014-Oct-08 06:33N 46°54' W 124°06'0 0.0
2014-Oct-08 05:08N 46°54' W 124°06'0 0.0
2014-Oct-08 04:18N 46°54' W 124°06'1 0.9
2014-Oct-08 03:28N 46°55' W 124°07'8 8.3
2014-Oct-08 02:33N 46°58' W 124°17'8 8.2
2014-Oct-08 01:33N 47°02' W 124°27'8 8.0
2014-Oct-08 00:34N 47°07' W 124°37'8 7.9
2014-Oct-07 23:33N 47°12' W 124°46'7 7.1
2014-Oct-07 22:33N 47°16' W 124°54'2 2.1
2014-Oct-07 21:33N 47°18' W 124°52'2 2.2
2014-Oct-07 20:33N 47°16' W 124°52'3 2.7
2014-Oct-07 19:33N 47°13' W 124°55'3 2.7
2014-Oct-07 18:33N 47°11' W 124°57'3 3.0
2014-Oct-07 17:30N 47°09' W 124°59'1 0.8
2014-Oct-07 16:33N 47°09' W 124°58'3 3.2
2014-Oct-07 15:33N 47°12' W 124°56'5 3.6
2014-Oct-07 14:07N 47°07' W 125°00'1 1.0
2014-Oct-07 13:33N 47°08' W 125°00'1 1.0
2014-Oct-07 12:33N 47°09' W 124°60'1 1.1
2014-Oct-07 11:33N 47°10' W 124°60'1 1.0
2014-Oct-07 10:33N 47°11' W 124°59'1 0.9
2014-Oct-07 09:33N 47°12' W 124°59'1 1.0
2014-Oct-07 08:33N 47°13' W 124°58'3 1.1
2014-Oct-07 05:33N 47°16' W 124°56'1 1.0
2014-Oct-07 04:34N 47°17' W 124°56'4 0.3
2014-Oct-06 14:21N 47°13' W 124°54'0 0.4
2014-Oct-06 13:25N 47°13' W 124°54'2 2.5
2014-Oct-06 12:33N 47°12' W 124°51'8 8.4
2014-Oct-06 11:33N 47°08' W 124°40'8 8.4
2014-Oct-06 10:33N 47°03' W 124°30'8 8.4
2014-Oct-06 09:33N 46°59' W 124°20'10 4.1
2014-Oct-06 07:06N 46°54' W 124°06'0 0.0
2014-Oct-06 04:19N 46°54' W 124°06'0 0.0
2014-Oct-05 20:03N 46°54' W 124°06'0 0.0
2014-Oct-05 19:26N 46°54' W 124°06'0 0.0
2014-Oct-05 18:33N 46°54' W 124°06'0 0.0
2014-Oct-05 17:31N 46°54' W 124°06'0 0.0
2014-Oct-05 16:33N 46°54' W 124°06'0 0.0
2014-Oct-05 15:33N 46°54' W 124°06'0 0.0
2014-Oct-05 14:33N 46°54' W 124°06'0 0.0
2014-Oct-05 13:16N 46°54' W 124°06'0 0.0
2014-Oct-05 09:20N 46°54' W 124°06'0 0.0
2014-Oct-05 08:33N 46°54' W 124°06'0 0.0
2014-Oct-05 07:32N 46°54' W 124°06'0 0.0
2014-Oct-05 06:32N 46°54' W 124°06'0 0.0
2014-Oct-05 05:24N 46°54' W 124°06'0 0.0
2014-Oct-05 04:32N 46°54' W 124°06'0 0.0
2014-Oct-05 03:32N 46°54' W 124°06'0 0.0
2014-Oct-05 02:33N 46°54' W 124°06'0 0.0
2014-Oct-05 01:20N 46°54' W 124°06'0 0.0
2014-Oct-04 23:23N 46°54' W 124°06'0 0.0
2014-Oct-04 22:27N 46°54' W 124°06'0 0.0
2014-Oct-04 21:19N 46°54' W 124°06'0 0.0
2014-Oct-04 20:31N 46°54' W 124°06'0 0.0
2014-Oct-04 19:33N 46°54' W 124°06'0 0.0
2014-Oct-04 18:32N 46°54' W 124°06'0 0.0
2014-Oct-04 17:24N 46°54' W 124°06'0 0.0
2014-Oct-04 16:33N 46°54' W 124°06'4 0.4
2014-Oct-04 07:06N 46°55' W 124°12'5 7.4
2014-Oct-04 06:29N 46°57' W 124°17'  

Dump ship's entire track history